createdAt,value
2018-05-06T00:00:35.736Z,11.38
2018-05-06T00:03:01.586Z,11.32
2018-05-06T00:05:27.460Z,11.25
2018-05-06T00:07:53.341Z,11.21
2018-05-06T00:10:19.215Z,11.24
2018-05-06T00:12:45.083Z,11.28
2018-05-06T00:15:10.977Z,11.33
2018-05-06T00:17:36.845Z,11.25
2018-05-06T00:20:02.749Z,11.19
2018-05-06T00:22:28.606Z,11.18
2018-05-06T00:24:54.478Z,11.22
2018-05-06T00:27:20.374Z,11.28
2018-05-06T00:29:46.224Z,11.24
2018-05-06T00:32:12.085Z,11.22
2018-05-06T00:34:37.957Z,11.22
2018-05-06T00:37:03.839Z,11.22
2018-05-06T00:39:29.699Z,11.16
2018-05-06T00:41:55.561Z,11.10
2018-05-06T00:44:21.418Z,11.01
2018-05-06T00:47:02.221Z,11.02
2018-05-06T00:49:28.091Z,10.95
2018-05-06T00:51:53.984Z,10.98
2018-05-06T00:54:32.172Z,10.99
2018-05-06T00:56:58.036Z,10.94
2018-05-06T00:59:23.907Z,10.87
2018-05-06T01:01:49.793Z,10.82
2018-05-06T01:04:15.657Z,10.80
2018-05-06T01:06:41.546Z,10.77
2018-05-06T01:09:07.391Z,10.71
2018-05-06T01:11:33.237Z,10.69
2018-05-06T01:13:59.085Z,10.66
2018-05-06T01:16:24.965Z,10.56
2018-05-06T01:18:50.819Z,10.55
2018-05-06T01:21:16.704Z,10.55
2018-05-06T01:23:42.569Z,10.51
2018-05-06T01:26:08.460Z,10.51
2018-05-06T01:28:34.320Z,10.49
2018-05-06T01:31:00.189Z,10.59
2018-05-06T01:33:26.047Z,10.58
2018-05-06T01:35:51.924Z,10.59
2018-05-06T01:38:17.785Z,10.54
2018-05-06T01:40:43.647Z,10.56
2018-05-06T01:43:09.528Z,10.52
2018-05-06T01:45:35.376Z,10.47
2018-05-06T01:48:01.258Z,10.46
2018-05-06T01:50:27.103Z,10.34
2018-05-06T01:52:53.000Z,10.25
2018-05-06T01:55:18.859Z,10.26
2018-05-06T01:57:44.690Z,10.36
2018-05-06T02:00:10.547Z,10.39
2018-05-06T02:02:36.373Z,10.41
2018-05-06T02:05:02.217Z,10.41
2018-05-06T02:07:28.062Z,10.49
2018-05-06T02:09:53.934Z,10.43
2018-05-06T02:12:19.773Z,10.34
2018-05-06T02:14:45.639Z,10.35
2018-05-06T02:17:11.507Z,10.33
2018-05-06T02:19:37.399Z,10.18
2018-05-06T02:22:03.241Z,10.16
2018-05-06T02:24:29.098Z,9.99
2018-05-06T02:26:55.642Z,9.97
2018-05-06T02:29:21.475Z,9.97
2018-05-06T02:31:47.343Z,9.96
2018-05-06T02:34:13.234Z,9.91
2018-05-06T02:36:39.074Z,9.85
2018-05-06T02:39:04.925Z,9.76
2018-05-06T02:41:30.801Z,9.68
2018-05-06T02:43:56.665Z,9.57
2018-05-06T02:46:22.538Z,9.53
2018-05-06T02:48:48.419Z,9.50
2018-05-06T02:51:14.267Z,9.48
2018-05-06T02:53:40.116Z,9.44
2018-05-06T02:56:05.955Z,9.47
2018-05-06T02:58:31.813Z,9.41
2018-05-06T03:00:57.659Z,9.37
2018-05-06T03:03:23.534Z,9.31
2018-05-06T03:05:49.379Z,9.24
2018-05-06T03:08:15.223Z,9.14
2018-05-06T03:10:41.074Z,9.01
2018-05-06T03:13:06.972Z,9.06
2018-05-06T03:15:32.813Z,9.03
2018-05-06T03:17:58.676Z,9.01
2018-05-06T03:20:24.534Z,9.02
2018-05-06T03:22:50.377Z,8.96
2018-05-06T03:25:16.250Z,8.85
2018-05-06T03:27:42.107Z,8.76
2018-05-06T03:30:07.958Z,8.71
2018-05-06T03:32:33.822Z,8.73
2018-05-06T03:34:59.694Z,8.78
2018-05-06T03:37:25.554Z,8.72
2018-05-06T03:39:51.412Z,8.78
2018-05-06T03:42:17.266Z,8.70
2018-05-06T03:44:43.110Z,8.72
2018-05-06T03:47:08.965Z,8.68
2018-05-06T03:49:34.848Z,8.66
2018-05-06T03:52:00.690Z,8.64
2018-05-06T03:54:26.552Z,8.61
2018-05-06T03:57:04.764Z,8.53
2018-05-06T03:59:42.941Z,8.53
2018-05-06T04:05:12.013Z,8.52
2018-05-06T04:07:37.842Z,8.54
2018-05-06T04:10:03.700Z,8.53
2018-05-06T04:12:29.568Z,8.56
2018-05-06T04:14:55.427Z,8.69
2018-05-06T04:17:21.284Z,8.72
2018-05-06T04:19:47.158Z,8.63
2018-05-06T04:22:13.017Z,8.61
2018-05-06T04:24:38.857Z,8.69
2018-05-06T04:27:04.725Z,8.69
2018-05-06T04:29:30.583Z,8.69
2018-05-06T04:31:56.404Z,8.72
2018-05-06T04:34:22.281Z,8.72
2018-05-06T04:36:48.171Z,8.70
2018-05-06T04:39:14.025Z,8.76
2018-05-06T04:41:39.869Z,8.77
2018-05-06T04:44:05.725Z,8.85
2018-05-06T04:46:31.590Z,8.85
2018-05-06T04:48:57.440Z,8.93
2018-05-06T04:51:23.289Z,8.98
2018-05-06T04:53:49.141Z,9.00
2018-05-06T04:56:14.995Z,8.97
2018-05-06T04:58:40.839Z,9.07
2018-05-06T05:01:06.776Z,9.13
2018-05-06T05:03:32.618Z,9.12
2018-05-06T05:05:58.467Z,9.17
2018-05-06T05:08:24.312Z,9.25
2018-05-06T05:10:50.205Z,9.29
2018-05-06T05:13:16.022Z,9.39
2018-05-06T05:15:41.887Z,9.42
2018-05-06T05:18:07.756Z,9.51
2018-05-06T05:20:33.628Z,9.59
2018-05-06T05:22:59.494Z,9.69
2018-05-06T05:25:25.354Z,9.75
2018-05-06T05:27:51.223Z,9.83
2018-05-06T05:30:17.093Z,9.87
2018-05-06T05:32:42.951Z,9.90
2018-05-06T05:35:08.807Z,9.95
2018-05-06T05:37:34.667Z,10.01
2018-05-06T05:40:00.524Z,10.00
2018-05-06T05:42:26.388Z,10.12
2018-05-06T05:44:52.254Z,10.17
2018-05-06T05:47:18.104Z,10.29
2018-05-06T05:49:43.957Z,10.37
2018-05-06T05:52:09.795Z,10.48
2018-05-06T05:54:35.680Z,10.46
2018-05-06T05:57:01.526Z,10.52
2018-05-06T05:59:27.373Z,10.72
2018-05-06T06:01:53.229Z,10.80
2018-05-06T06:04:19.111Z,10.85
2018-05-06T06:06:44.951Z,10.98
2018-05-06T06:09:10.827Z,11.08
2018-05-06T06:11:36.681Z,11.24
2018-05-06T06:14:02.553Z,11.37
2018-05-06T06:16:28.438Z,11.38
2018-05-06T06:18:54.306Z,11.47
2018-05-06T06:21:20.185Z,11.45
2018-05-06T06:23:46.056Z,11.47
2018-05-06T06:26:11.952Z,11.68
2018-05-06T06:28:37.804Z,11.78
2018-05-06T06:31:03.659Z,11.89
2018-05-06T06:33:29.543Z,12.10
2018-05-06T06:35:55.401Z,12.31
2018-05-06T06:38:21.287Z,12.45
2018-05-06T06:40:47.150Z,12.61
2018-05-06T06:43:13.012Z,12.76
2018-05-06T06:45:38.858Z,12.80
2018-05-06T06:48:04.782Z,12.93
2018-05-06T06:50:30.593Z,12.87
2018-05-06T06:52:56.528Z,12.94
2018-05-06T06:55:22.507Z,12.89
2018-05-06T06:57:48.394Z,12.94
2018-05-06T07:00:14.252Z,13.01
2018-05-06T07:02:55.091Z,13.12
2018-05-06T07:05:20.920Z,13.33
2018-05-06T07:07:46.755Z,13.37
2018-05-06T07:10:12.610Z,13.59
2018-05-06T07:12:38.446Z,13.83
2018-05-06T07:15:04.321Z,13.82
2018-05-06T07:17:30.176Z,13.88
2018-05-06T07:19:56.043Z,14.03
2018-05-06T07:22:21.879Z,14.29
2018-05-06T07:24:47.733Z,14.36
2018-05-06T07:27:13.569Z,14.35
2018-05-06T07:29:39.409Z,14.41
2018-05-06T07:32:05.294Z,14.43
2018-05-06T07:34:31.188Z,14.61
2018-05-06T07:36:57.030Z,14.90
2018-05-06T07:39:22.868Z,15.04
2018-05-06T07:41:48.748Z,15.17
2018-05-06T07:44:14.652Z,15.05
2018-05-06T07:46:40.538Z,15.18
2018-05-06T07:49:06.496Z,15.16
2018-05-06T07:51:32.290Z,15.10
2018-05-06T07:53:58.177Z,15.26
2018-05-06T07:56:24.042Z,15.27
2018-05-06T07:58:49.902Z,15.29
2018-05-06T08:01:15.820Z,15.41
2018-05-06T08:03:41.653Z,15.53
2018-05-06T08:06:07.727Z,15.77
2018-05-06T08:08:33.567Z,15.78
2018-05-06T08:10:59.401Z,15.78
2018-05-06T08:13:25.255Z,16.05
2018-05-06T08:18:43.879Z,16.76
2018-05-06T08:21:09.741Z,16.85
2018-05-06T08:23:35.619Z,17.12
2018-05-06T08:26:01.469Z,17.09
2018-05-06T08:28:27.343Z,17.11
2018-05-06T08:30:53.219Z,17.02
2018-05-06T08:33:19.103Z,17.36
2018-05-06T08:35:44.973Z,17.24
2018-05-06T08:38:10.867Z,17.42
2018-05-06T08:40:36.723Z,17.39
2018-05-06T08:43:02.571Z,17.49
2018-05-06T08:45:28.448Z,17.63
2018-05-06T08:47:54.293Z,17.82
2018-05-06T08:50:20.174Z,17.82
2018-05-06T08:52:46.069Z,17.90
2018-05-06T08:55:11.953Z,17.99
2018-05-06T08:57:37.848Z,17.98
2018-05-06T09:00:03.730Z,18.07
2018-05-06T09:02:29.599Z,18.08
2018-05-06T09:04:55.428Z,18.15
2018-05-06T09:07:21.308Z,18.17
2018-05-06T09:09:47.186Z,18.12
2018-05-06T09:12:13.097Z,18.35
2018-05-06T09:14:38.968Z,18.64
2018-05-06T09:17:04.843Z,18.69
2018-05-06T09:19:30.706Z,18.98
2018-05-06T09:21:56.567Z,19.06
2018-05-06T09:24:22.449Z,19.13
2018-05-06T09:26:48.357Z,19.22
2018-05-06T09:29:14.244Z,19.34
2018-05-06T09:31:40.119Z,19.29
2018-05-06T09:34:05.997Z,19.21
2018-05-06T09:36:31.864Z,19.23
2018-05-06T09:38:57.729Z,19.40
2018-05-06T09:41:23.628Z,19.34
2018-05-06T09:43:49.496Z,19.28
2018-05-06T09:46:15.342Z,19.21
2018-05-06T09:48:41.235Z,19.48
2018-05-06T09:51:07.561Z,19.34
2018-05-06T09:53:33.439Z,19.43
2018-05-06T09:55:59.314Z,19.73
2018-05-06T09:58:25.195Z,19.77
2018-05-06T10:00:51.053Z,19.73
2018-05-06T10:03:16.982Z,19.92
2018-05-06T10:05:42.818Z,20.14
2018-05-06T10:08:08.678Z,20.14
2018-05-06T10:10:34.545Z,20.39
2018-05-06T10:13:00.400Z,20.28
2018-05-06T10:15:26.277Z,20.21
2018-05-06T10:17:52.136Z,20.11
2018-05-06T10:20:17.995Z,20.14
2018-05-06T10:22:43.880Z,20.27
2018-05-06T10:25:09.736Z,20.57
2018-05-06T10:27:35.592Z,20.81
2018-05-06T10:30:01.465Z,20.78
2018-05-06T10:32:27.340Z,20.79
2018-05-06T10:34:53.197Z,20.98
2018-05-06T10:37:19.062Z,21.23
2018-05-06T10:39:44.900Z,21.50
2018-05-06T10:42:10.780Z,21.52
2018-05-06T10:44:36.624Z,21.51
2018-05-06T10:47:02.605Z,21.66
2018-05-06T10:49:28.396Z,21.72
2018-05-06T10:51:54.249Z,21.85
2018-05-06T10:54:20.122Z,22.09
2018-05-06T10:56:46.005Z,22.30
2018-05-06T10:59:11.868Z,22.37
2018-05-06T11:01:37.756Z,22.34
2018-05-06T11:04:03.620Z,22.91
2018-05-06T11:06:29.477Z,23.21
2018-05-06T11:08:55.370Z,23.40
2018-05-06T11:11:21.207Z,23.30
2018-05-06T11:13:47.106Z,23.19
2018-05-06T11:16:13.085Z,23.39
2018-05-06T11:18:38.984Z,23.94
2018-05-06T11:21:04.829Z,24.35
2018-05-06T11:23:30.726Z,24.63
2018-05-06T11:25:56.598Z,24.99
2018-05-06T11:28:22.443Z,25.19
2018-05-06T11:30:48.305Z,25.33
2018-05-06T11:33:14.158Z,25.66
2018-05-06T11:35:40.019Z,25.94
2018-05-06T11:38:06.696Z,26.15
2018-05-06T11:40:32.584Z,26.24
2018-05-06T11:42:58.443Z,26.35
2018-05-06T11:45:24.307Z,27.04
2018-05-06T11:47:50.178Z,27.21
2018-05-06T11:50:16.013Z,27.36
2018-05-06T11:52:41.891Z,26.99
2018-05-06T11:55:07.727Z,27.69
2018-05-06T11:57:33.595Z,27.86
2018-05-06T11:59:59.446Z,28.07
2018-05-06T12:02:25.389Z,28.13
2018-05-06T12:04:51.194Z,26.57
2018-05-06T12:07:17.069Z,26.58
2018-05-06T12:09:42.921Z,27.55
2018-05-06T12:12:08.843Z,27.88
2018-05-06T12:14:34.690Z,28.30
2018-05-06T12:17:00.569Z,28.24
2018-05-06T12:19:26.427Z,27.48
2018-05-06T12:21:52.360Z,27.59
2018-05-06T12:24:18.179Z,28.29
2018-05-06T12:26:44.024Z,28.49
2018-05-06T12:29:09.917Z,28.80
2018-05-06T12:31:35.838Z,29.03
2018-05-06T12:34:01.738Z,29.07
2018-05-06T12:36:27.594Z,28.70
2018-05-06T12:38:53.456Z,28.65
2018-05-06T12:41:19.318Z,28.48
2018-05-06T12:43:45.176Z,28.74
2018-05-06T12:46:11.048Z,29.20
2018-05-06T12:48:36.904Z,28.93
2018-05-06T12:51:02.757Z,29.49
2018-05-06T12:53:28.609Z,29.30
2018-05-06T12:55:54.481Z,29.22
2018-05-06T12:58:20.339Z,29.84
2018-05-06T13:00:46.198Z,29.98
2018-05-06T13:03:12.071Z,29.40
2018-05-06T13:05:37.936Z,29.45
2018-05-06T13:08:03.835Z,29.83
2018-05-06T13:10:29.738Z,28.37
2018-05-06T13:12:55.581Z,28.19
2018-05-06T13:15:21.456Z,29.31
2018-05-06T13:17:47.318Z,29.23
2018-05-06T13:20:13.204Z,28.64
2018-05-06T13:22:39.150Z,29.12
2018-05-06T13:25:05.011Z,29.69
2018-05-06T13:27:30.910Z,29.29
2018-05-06T13:29:56.757Z,29.15
2018-05-06T13:32:22.700Z,29.69
2018-05-06T13:34:48.574Z,29.99
2018-05-06T13:37:14.437Z,29.17
2018-05-06T13:39:40.306Z,28.14
2018-05-06T13:42:06.226Z,28.15
2018-05-06T13:44:32.078Z,28.68
2018-05-06T13:46:57.959Z,29.46
2018-05-06T13:49:23.844Z,27.76
2018-05-06T13:51:49.738Z,28.10
2018-05-06T13:54:15.625Z,28.41
2018-05-06T13:56:41.483Z,28.15
2018-05-06T13:59:07.339Z,27.78
2018-05-06T14:01:33.207Z,28.33
2018-05-06T14:03:59.092Z,28.42
2018-05-06T14:06:24.934Z,28.07
2018-05-06T14:08:50.821Z,28.12
2018-05-06T14:11:16.644Z,28.55
2018-05-06T14:13:42.480Z,28.80
2018-05-06T14:16:08.346Z,28.74
2018-05-06T14:18:34.235Z,28.43
2018-05-06T14:21:00.128Z,28.66
2018-05-06T14:23:25.981Z,28.96
2018-05-06T14:25:51.860Z,28.88
2018-05-06T14:28:17.725Z,28.76
2018-05-06T14:30:43.596Z,28.89
2018-05-06T14:33:09.433Z,28.46
2018-05-06T14:35:35.305Z,28.65
2018-05-06T14:38:01.144Z,28.58
2018-05-06T14:40:27.034Z,28.74
2018-05-06T14:42:52.914Z,28.54
2018-05-06T14:45:18.765Z,28.88
2018-05-06T14:47:57.127Z,28.14
2018-05-06T14:50:22.968Z,28.10
2018-05-06T14:52:48.819Z,27.72
2018-05-06T14:55:14.658Z,28.05
2018-05-06T14:57:40.547Z,28.32
2018-05-06T15:00:06.407Z,27.90
2018-05-06T15:02:32.271Z,28.43
2018-05-06T15:04:58.116Z,28.19
2018-05-06T15:07:24.018Z,28.98
2018-05-06T15:09:49.885Z,29.38
2018-05-06T15:12:15.741Z,29.99
2018-05-06T15:14:41.601Z,29.68
2018-05-06T15:17:07.491Z,28.84
2018-05-06T15:19:33.359Z,29.73
2018-05-06T15:21:59.243Z,29.11
2018-05-06T15:24:25.113Z,28.74
2018-05-06T15:26:50.967Z,27.90
2018-05-06T15:29:16.841Z,28.33
2018-05-06T15:31:42.688Z,29.54
2018-05-06T15:34:08.593Z,30.08
2018-05-06T15:36:34.448Z,28.91
2018-05-06T15:39:00.304Z,28.41
2018-05-06T15:41:26.168Z,28.87
2018-05-06T15:43:52.030Z,28.17
2018-05-06T15:46:17.908Z,28.90
2018-05-06T15:48:43.762Z,29.85
2018-05-06T15:51:09.654Z,28.83
2018-05-06T15:53:35.525Z,30.06
2018-05-06T15:56:01.355Z,30.97
2018-05-06T15:58:27.315Z,29.86
2018-05-06T16:00:53.256Z,28.91
2018-05-06T16:03:31.647Z,29.71
2018-05-06T16:05:57.483Z,30.00
2018-05-06T16:08:23.357Z,29.07
2018-05-06T16:10:49.211Z,28.96
2018-05-06T16:13:15.088Z,30.16
2018-05-06T16:15:40.960Z,30.44
2018-05-06T16:18:06.844Z,30.27
2018-05-06T16:20:32.720Z,30.04
2018-05-06T16:22:58.671Z,29.89
2018-05-06T16:25:25.328Z,29.56
2018-05-06T16:27:51.192Z,29.13
2018-05-06T16:30:17.049Z,30.48
2018-05-06T16:32:42.889Z,29.75
2018-05-06T16:35:08.818Z,31.41
2018-05-06T16:37:34.675Z,29.62
2018-05-06T16:40:00.600Z,29.17
2018-05-06T16:42:26.510Z,29.02
2018-05-06T16:44:52.394Z,29.09
2018-05-06T16:47:18.273Z,29.00
2018-05-06T16:49:44.212Z,27.79
2018-05-06T16:52:10.103Z,26.31
2018-05-06T16:54:35.971Z,26.14
2018-05-06T16:57:01.831Z,26.13
2018-05-06T16:59:27.726Z,25.83
2018-05-06T17:01:56.454Z,26.04
2018-05-06T17:04:22.485Z,25.56
2018-05-06T17:06:48.376Z,25.34
2018-05-06T17:09:14.249Z,25.18
2018-05-06T17:11:40.154Z,25.15
2018-05-06T17:14:06.017Z,25.18
2018-05-06T17:16:31.923Z,25.36
2018-05-06T17:18:57.825Z,25.54
2018-05-06T17:21:23.749Z,25.25
2018-05-06T17:23:49.649Z,24.64
2018-05-06T17:26:15.567Z,24.74
2018-05-06T17:31:23.377Z,24.96
2018-05-06T17:33:49.250Z,24.69
2018-05-06T17:36:15.170Z,24.78
2018-05-06T17:38:41.042Z,24.59
2018-05-06T17:41:06.890Z,24.56
2018-05-06T17:43:32.820Z,24.47
2018-05-06T17:45:58.759Z,24.26
2018-05-06T17:48:25.263Z,24.36
2018-05-06T17:50:51.165Z,24.13
2018-05-06T17:53:17.083Z,24.05
2018-05-06T17:55:43.032Z,23.84
2018-05-06T17:58:08.993Z,23.76
2018-05-06T18:00:34.898Z,23.56
2018-05-06T18:03:00.839Z,23.33
2018-05-06T18:05:26.728Z,23.20
2018-05-06T18:07:52.649Z,23.31
2018-05-06T18:10:18.539Z,23.06
2018-05-06T18:12:44.396Z,22.98
2018-05-06T18:15:25.263Z,22.88
2018-05-06T18:17:52.111Z,22.77
2018-05-06T18:20:18.034Z,22.58
2018-05-06T18:22:43.940Z,22.47
2018-05-06T18:25:10.805Z,22.14
2018-05-06T18:27:36.695Z,21.91
2018-05-06T18:30:03.411Z,21.57
2018-05-06T18:32:29.325Z,21.45
2018-05-06T18:34:55.251Z,21.38
2018-05-06T18:37:21.150Z,21.29
2018-05-06T18:39:47.069Z,21.12
2018-05-06T18:42:13.006Z,20.80
2018-05-06T18:44:38.883Z,20.78
2018-05-06T18:47:04.925Z,20.63
2018-05-06T18:49:30.809Z,20.55
2018-05-06T18:51:56.676Z,20.43
2018-05-06T18:54:22.565Z,20.42
2018-05-06T18:56:48.411Z,20.32
2018-05-06T18:59:14.297Z,20.21
2018-05-06T19:01:40.127Z,20.02
2018-05-06T19:04:06.063Z,19.89
2018-05-06T19:06:31.995Z,19.81
2018-05-06T19:08:58.887Z,19.66
2018-05-06T19:11:25.717Z,19.51
2018-05-06T19:13:52.768Z,19.42
2018-05-06T19:16:19.643Z,19.21
2018-05-06T19:18:46.436Z,19.17
2018-05-06T19:21:12.460Z,18.98
2018-05-06T19:23:38.397Z,18.91
2018-05-06T19:26:04.376Z,18.76
2018-05-06T19:28:30.326Z,18.67
2018-05-06T19:30:57.165Z,18.52
2018-05-06T19:33:24.125Z,18.45
2018-05-06T19:35:50.069Z,18.40
2018-05-06T19:38:16.703Z,18.17
2018-05-06T19:40:42.693Z,18.26
2018-05-06T19:43:08.551Z,18.15
2018-05-06T19:45:34.472Z,18.04
2018-05-06T19:48:00.336Z,17.97
2018-05-06T19:50:26.269Z,17.94
2018-05-06T19:52:52.140Z,17.89
2018-05-06T19:55:19.593Z,17.71
2018-05-06T19:57:45.493Z,17.67
2018-05-06T20:00:13.145Z,17.69
2018-05-06T20:02:39.920Z,17.67
2018-05-06T20:05:05.805Z,17.57
2018-05-06T20:07:31.743Z,17.45
2018-05-06T20:09:57.644Z,17.31
2018-05-06T20:12:23.553Z,17.23
2018-05-06T20:14:50.310Z,17.23
2018-05-06T20:17:17.553Z,17.11
2018-05-06T20:19:44.066Z,17.24
2018-05-06T20:22:09.937Z,17.01
2018-05-06T20:24:35.856Z,17.08
2018-05-06T20:27:01.897Z,17.18
2018-05-06T20:29:27.803Z,17.22
2018-05-06T20:31:53.709Z,17.17
2018-05-06T20:34:19.609Z,17.07
2018-05-06T20:36:45.540Z,17.05
2018-05-06T20:39:11.531Z,16.94
2018-05-06T20:41:38.432Z,16.90
2018-05-06T20:44:04.329Z,16.85
2018-05-06T20:46:31.699Z,16.84
2018-05-06T20:48:57.639Z,16.74
2018-05-06T20:51:23.495Z,16.64
2018-05-06T20:53:49.366Z,16.61
2018-05-06T20:56:15.905Z,16.48
2018-05-06T20:58:41.800Z,16.46
2018-05-06T21:01:07.713Z,16.43
2018-05-06T21:03:34.073Z,16.38
2018-05-06T21:05:59.992Z,16.46
2018-05-06T21:08:25.870Z,16.36
2018-05-06T21:10:51.863Z,16.38
2018-05-06T21:13:17.765Z,16.27
2018-05-06T21:15:43.602Z,16.16
2018-05-06T21:18:09.483Z,16.08
2018-05-06T21:20:35.399Z,15.96
2018-05-06T21:23:01.307Z,15.95
2018-05-06T21:25:27.218Z,15.88
2018-05-06T21:27:53.140Z,15.82
2018-05-06T21:30:19.035Z,15.74
2018-05-06T21:32:44.928Z,15.63
2018-05-06T21:35:10.803Z,15.58
2018-05-06T21:37:36.656Z,15.63
2018-05-06T21:40:02.576Z,15.61
2018-05-06T21:42:28.444Z,15.56
2018-05-06T21:44:54.344Z,15.56
2018-05-06T21:47:20.196Z,15.58
2018-05-06T21:49:46.120Z,15.55
2018-05-06T21:52:11.967Z,15.59
2018-05-06T21:54:37.879Z,15.58
2018-05-06T21:57:03.748Z,15.57
2018-05-06T21:59:29.610Z,15.54
2018-05-06T22:01:55.505Z,15.59
2018-05-06T22:04:21.395Z,15.56
2018-05-06T22:06:47.311Z,15.60
2018-05-06T22:09:13.707Z,15.53
2018-05-06T22:11:39.615Z,15.51
2018-05-06T22:14:05.481Z,15.50
2018-05-06T22:16:31.377Z,15.39
2018-05-06T22:18:57.257Z,15.38
2018-05-06T22:21:23.149Z,15.36
2018-05-06T22:23:49.028Z,15.21
2018-05-06T22:26:14.935Z,15.32
2018-05-06T22:28:40.866Z,15.32
2018-05-06T22:31:06.772Z,15.13
2018-05-06T22:33:33.825Z,15.18
2018-05-06T22:35:59.713Z,15.00
2018-05-06T22:38:25.625Z,15.01
2018-05-06T22:40:51.591Z,14.95
2018-05-06T22:43:17.495Z,14.84
2018-05-06T22:45:43.361Z,14.71
2018-05-06T22:48:09.241Z,14.67
2018-05-06T22:50:35.135Z,14.49
2018-05-06T22:53:01.031Z,14.44
2018-05-06T22:55:26.929Z,14.41
2018-05-06T22:57:52.797Z,14.33
2018-05-06T23:00:18.708Z,14.19
2018-05-06T23:02:44.590Z,14.13
2018-05-06T23:05:10.561Z,14.08
2018-05-06T23:07:36.492Z,13.98
2018-05-06T23:10:02.370Z,13.85
2018-05-06T23:12:28.321Z,13.72
2018-05-06T23:14:54.212Z,13.79
2018-05-06T23:17:20.112Z,13.59
2018-05-06T23:19:46.034Z,13.53
2018-05-06T23:22:11.925Z,13.47
2018-05-06T23:24:37.814Z,13.49
2018-05-06T23:27:03.685Z,13.42
2018-05-06T23:29:29.569Z,13.36
2018-05-06T23:31:55.458Z,13.30
2018-05-06T23:34:21.430Z,13.15
2018-05-06T23:36:47.283Z,13.15
2018-05-06T23:39:13.159Z,13.06
2018-05-06T23:41:39.061Z,13.11
2018-05-06T23:44:04.956Z,13.04
2018-05-06T23:46:30.851Z,13.03
2018-05-06T23:48:56.732Z,13.05
2018-05-06T23:51:22.620Z,13.00
2018-05-06T23:53:48.491Z,12.95
2018-05-06T23:56:14.388Z,12.91
2018-05-06T23:58:40.315Z,12.76
